sensor_id;sensor_type;location;lat;lon;timestamp;temperature;humidity
20200;DHT22;36284;37.236;-121.934;2022-10-30T00:00:39;21.70;98.90
20200;DHT22;36284;37.236;-121.934;2022-10-30T00:03:10;21.70;99.30
20200;DHT22;36284;37.236;-121.934;2022-10-30T00:05:46;21.70;99.50
20200;DHT22;36284;37.236;-121.934;2022-10-30T00:08:15;21.50;99.90
20200;DHT22;36284;37.236;-121.934;2022-10-30T00:10:43;21.40;99.90
20200;DHT22;36284;37.236;-121.934;2022-10-30T00:13:10;21.00;99.90
20200;DHT22;36284;37.236;-121.934;2022-10-30T00:15:38;21.10;99.90
20200;DHT22;36284;37.236;-121.934;2022-10-30T00:18:05;21.10;99.90
20200;DHT22;36284;37.236;-121.934;2022-10-30T00:20:31;20.90;99.90
20200;DHT22;36284;37.236;-121.934;2022-10-30T00:23:01;20.70;99.90
20200;DHT22;36284;37.236;-121.934;2022-10-30T00:25:28;20.70;99.90
20200;DHT22;36284;37.236;-121.934;2022-10-30T00:27:55;20.60;99.90
20200;DHT22;36284;37.236;-121.934;2022-10-30T00:30:21;20.30;99.90
20200;DHT22;36284;37.236;-121.934;2022-10-30T00:32:48;20.30;99.90
20200;DHT22;36284;37.236;-121.934;2022-10-30T00:35:15;20.20;99.90
20200;DHT22;36284;37.236;-121.934;2022-10-30T00:37:42;19.90;99.90
20200;DHT22;36284;37.236;-121.934;2022-10-30T00:40:14;19.70;99.90
20200;DHT22;36284;37.236;-121.934;2022-10-30T00:42:42;19.60;99.90
20200;DHT22;36284;37.236;-121.934;2022-10-30T00:45:13;19.60;99.90
20200;DHT22;36284;37.236;-121.934;2022-10-30T00:47:49;19.60;99.90
20200;DHT22;36284;37.236;-121.934;2022-10-30T00:55:36;19.30;99.90
20200;DHT22;36284;37.236;-121.934;2022-10-30T00:58:08;19.30;99.90
20200;DHT22;36284;37.236;-121.934;2022-10-30T01:00:37;19.20;99.90
20200;DHT22;36284;37.236;-121.934;2022-10-30T01:03:07;19.10;99.90
20200;DHT22;36284;37.236;-121.934;2022-10-30T01:05:35;18.80;99.90
20200;DHT22;36284;37.236;-121.934;2022-10-30T01:08:02;18.80;99.90
20200;DHT22;36284;37.236;-121.934;2022-10-30T01:10:29;18.70;99.90
20200;DHT22;36284;37.236;-121.934;2022-10-30T01:12:57;18.50;99.90
20200;DHT22;36284;37.236;-121.934;2022-10-30T01:15:32;18.40;99.90
20200;DHT22;36284;37.236;-121.934;2022-10-30T01:18:18;18.20;99.90
20200;DHT22;36284;37.236;-121.934;2022-10-30T01:26:56;17.70;99.90
20200;DHT22;36284;37.236;-121.934;2022-10-30T01:38:25;16.90;99.90
20200;DHT22;36284;37.236;-121.934;2022-10-30T01:40:55;16.80;99.90
20200;DHT22;36284;37.236;-121.934;2022-10-30T01:43:22;16.80;99.90
20200;DHT22;36284;37.236;-121.934;2022-10-30T01:49:03;16.50;99.90
20200;DHT22;36284;37.236;-121.934;2022-10-30T01:51:50;16.40;99.90
20200;DHT22;36284;37.236;-121.934;2022-10-30T01:57:07;16.10;99.90
20200;DHT22;36284;37.236;-121.934;2022-10-30T02:02:06;15.80;99.90
20200;DHT22;36284;37.236;-121.934;2022-10-30T02:04:33;15.70;99.90
20200;DHT22;36284;37.236;-121.934;2022-10-30T02:07:00;15.60;99.90
20200;DHT22;36284;37.236;-121.934;2022-10-30T02:09:27;15.60;99.90
20200;DHT22;36284;37.236;-121.934;2022-10-30T02:11:55;15.40;99.90
20200;DHT22;36284;37.236;-121.934;2022-10-30T02:14:29;15.20;99.90
20200;DHT22;36284;37.236;-121.934;2022-10-30T02:16:59;15.10;99.90
20200;DHT22;36284;37.236;-121.934;2022-10-30T02:19:27;15.00;99.90
20200;DHT22;36284;37.236;-121.934;2022-10-30T02:21:53;15.00;99.90
20200;DHT22;36284;37.236;-121.934;2022-10-30T02:24:20;14.80;99.90
20200;DHT22;36284;37.236;-121.934;2022-10-30T02:26:47;14.70;99.90
20200;DHT22;36284;37.236;-121.934;2022-10-30T02:29:15;14.70;99.90
20200;DHT22;36284;37.236;-121.934;2022-10-30T02:31:46;14.60;99.90
20200;DHT22;36284;37.236;-121.934;2022-10-30T02:34:13;14.50;99.90
20200;DHT22;36284;37.236;-121.934;2022-10-30T02:36:40;14.30;99.90
20200;DHT22;36284;37.236;-121.934;2022-10-30T02:39:07;14.30;99.90
20200;DHT22;36284;37.236;-121.934;2022-10-30T02:41:34;14.30;99.90
20200;DHT22;36284;37.236;-121.934;2022-10-30T02:44:01;14.30;99.90
20200;DHT22;36284;37.236;-121.934;2022-10-30T02:46:28;14.20;99.90
20200;DHT22;36284;37.236;-121.934;2022-10-30T02:48:55;14.10;99.90
20200;DHT22;36284;37.236;-121.934;2022-10-30T02:51:22;14.10;99.90
20200;DHT22;36284;37.236;-121.934;2022-10-30T02:53:49;14.10;99.90
20200;DHT22;36284;37.236;-121.934;2022-10-30T02:56:16;14.10;99.90
20200;DHT22;36284;37.236;-121.934;2022-10-30T02:58:43;14.20;99.90
20200;DHT22;36284;37.236;-121.934;2022-10-30T03:01:18;14.20;99.90
20200;DHT22;36284;37.236;-121.934;2022-10-30T03:03:45;14.10;99.90
20200;DHT22;36284;37.236;-121.934;2022-10-30T03:06:14;14.10;99.90
20200;DHT22;36284;37.236;-121.934;2022-10-30T03:08:42;14.10;99.90
20200;DHT22;36284;37.236;-121.934;2022-10-30T03:11:11;14.20;99.90
20200;DHT22;36284;37.236;-121.934;2022-10-30T03:13:39;14.20;99.90
20200;DHT22;36284;37.236;-121.934;2022-10-30T03:16:09;14.20;99.90
20200;DHT22;36284;37.236;-121.934;2022-10-30T03:18:36;14.10;99.90
20200;DHT22;36284;37.236;-121.934;2022-10-30T03:21:05;14.00;99.90
20200;DHT22;36284;37.236;-121.934;2022-10-30T03:23:32;13.90;99.90
20200;DHT22;36284;37.236;-121.934;2022-10-30T03:26:00;13.80;99.90
20200;DHT22;36284;37.236;-121.934;2022-10-30T03:28:28;13.70;99.90
20200;DHT22;36284;37.236;-121.934;2022-10-30T03:31:10;13.60;99.90
20200;DHT22;36284;37.236;-121.934;2022-10-30T03:33:37;13.60;99.90
20200;DHT22;36284;37.236;-121.934;2022-10-30T03:36:06;13.40;99.90
20200;DHT22;36284;37.236;-121.934;2022-10-30T03:38:33;13.40;99.90
20200;DHT22;36284;37.236;-121.934;2022-10-30T03:41:00;13.40;99.90
20200;DHT22;36284;37.236;-121.934;2022-10-30T03:43:27;13.30;99.90
20200;DHT22;36284;37.236;-121.934;2022-10-30T03:45:55;13.30;99.90
20200;DHT22;36284;37.236;-121.934;2022-10-30T03:48:27;13.20;99.90
20200;DHT22;36284;37.236;-121.934;2022-10-30T03:50:55;13.10;99.90
20200;DHT22;36284;37.236;-121.934;2022-10-30T03:53:23;12.90;99.90
20200;DHT22;36284;37.236;-121.934;2022-10-30T03:55:52;12.80;99.90
20200;DHT22;36284;37.236;-121.934;2022-10-30T03:58:19;12.90;99.90
20200;DHT22;36284;37.236;-121.934;2022-10-30T04:00:46;12.90;99.90
20200;DHT22;36284;37.236;-121.934;2022-10-30T04:03:13;12.90;99.90
20200;DHT22;36284;37.236;-121.934;2022-10-30T04:05:40;12.80;99.90
20200;DHT22;36284;37.236;-121.934;2022-10-30T04:08:11;12.80;99.90
20200;DHT22;36284;37.236;-121.934;2022-10-30T04:10:45;12.80;99.90
20200;DHT22;36284;37.236;-121.934;2022-10-30T04:13:14;12.80;99.90
20200;DHT22;36284;37.236;-121.934;2022-10-30T04:15:42;12.70;99.90
20200;DHT22;36284;37.236;-121.934;2022-10-30T04:18:12;12.70;99.90
20200;DHT22;36284;37.236;-121.934;2022-10-30T04:20:42;12.80;99.90
20200;DHT22;36284;37.236;-121.934;2022-10-30T04:23:13;12.70;99.90
20200;DHT22;36284;37.236;-121.934;2022-10-30T04:25:41;12.70;99.90
20200;DHT22;36284;37.236;-121.934;2022-10-30T04:28:08;12.60;99.90
20200;DHT22;36284;37.236;-121.934;2022-10-30T04:30:36;12.50;99.90
20200;DHT22;36284;37.236;-121.934;2022-10-30T04:33:05;12.50;99.90
20200;DHT22;36284;37.236;-121.934;2022-10-30T04:35:34;12.40;99.90
20200;DHT22;36284;37.236;-121.934;2022-10-30T04:38:07;12.40;99.90
20200;DHT22;36284;37.236;-121.934;2022-10-30T04:40:38;12.40;99.90
20200;DHT22;36284;37.236;-121.934;2022-10-30T04:43:06;12.40;99.90
20200;DHT22;36284;37.236;-121.934;2022-10-30T04:45:33;12.40;99.90
20200;DHT22;36284;37.236;-121.934;2022-10-30T04:48:02;12.30;99.90
20200;DHT22;36284;37.236;-121.934;2022-10-30T04:50:30;12.30;99.90
20200;DHT22;36284;37.236;-121.934;2022-10-30T04:53:05;12.30;99.90
20200;DHT22;36284;37.236;-121.934;2022-10-30T04:55:33;12.30;99.90
20200;DHT22;36284;37.236;-121.934;2022-10-30T04:58:00;12.30;99.90
20200;DHT22;36284;37.236;-121.934;2022-10-30T05:00:31;12.20;99.90
20200;DHT22;36284;37.236;-121.934;2022-10-30T05:02:59;12.20;99.90
20200;DHT22;36284;37.236;-121.934;2022-10-30T05:05:27;12.20;99.90
20200;DHT22;36284;37.236;-121.934;2022-10-30T05:07:54;12.10;99.90
20200;DHT22;36284;37.236;-121.934;2022-10-30T05:10:22;12.10;99.90
20200;DHT22;36284;37.236;-121.934;2022-10-30T05:12:51;12.00;99.90
20200;DHT22;36284;37.236;-121.934;2022-10-30T05:15:19;12.00;99.90
20200;DHT22;36284;37.236;-121.934;2022-10-30T05:17:50;12.00;99.90
20200;DHT22;36284;37.236;-121.934;2022-10-30T05:20:18;11.90;99.90
20200;DHT22;36284;37.236;-121.934;2022-10-30T05:22:45;11.90;99.90
20200;DHT22;36284;37.236;-121.934;2022-10-30T05:25:12;11.90;99.90
20200;DHT22;36284;37.236;-121.934;2022-10-30T05:27:41;11.80;99.90
20200;DHT22;36284;37.236;-121.934;2022-10-30T05:30:08;12.00;99.90
20200;DHT22;36284;37.236;-121.934;2022-10-30T05:32:35;12.00;99.90
20200;DHT22;36284;37.236;-121.934;2022-10-30T05:35:02;11.90;99.90
20200;DHT22;36284;37.236;-121.934;2022-10-30T05:37:29;11.80;99.90
20200;DHT22;36284;37.236;-121.934;2022-10-30T05:39:56;11.80;99.90
20200;DHT22;36284;37.236;-121.934;2022-10-30T05:42:23;11.80;99.90
20200;DHT22;36284;37.236;-121.934;2022-10-30T05:44:50;11.80;99.90
20200;DHT22;36284;37.236;-121.934;2022-10-30T05:47:16;11.80;99.90
20200;DHT22;36284;37.236;-121.934;2022-10-30T05:49:43;11.80;99.90
20200;DHT22;36284;37.236;-121.934;2022-10-30T05:52:10;11.80;99.90
20200;DHT22;36284;37.236;-121.934;2022-10-30T05:54:37;12.00;99.90
20200;DHT22;36284;37.236;-121.934;2022-10-30T05:57:04;12.10;99.90
20200;DHT22;36284;37.236;-121.934;2022-10-30T05:59:31;12.10;99.90
20200;DHT22;36284;37.236;-121.934;2022-10-30T06:01:58;12.20;99.90
20200;DHT22;36284;37.236;-121.934;2022-10-30T06:04:24;12.10;99.90
20200;DHT22;36284;37.236;-121.934;2022-10-30T06:06:51;12.10;99.90
20200;DHT22;36284;37.236;-121.934;2022-10-30T06:09:18;12.00;99.90
20200;DHT22;36284;37.236;-121.934;2022-10-30T06:11:45;12.00;99.90
20200;DHT22;36284;37.236;-121.934;2022-10-30T06:14:12;11.90;99.90
20200;DHT22;36284;37.236;-121.934;2022-10-30T06:16:39;11.80;99.90
20200;DHT22;36284;37.236;-121.934;2022-10-30T06:19:06;11.70;99.90
20200;DHT22;36284;37.236;-121.934;2022-10-30T06:21:32;11.80;99.90
20200;DHT22;36284;37.236;-121.934;2022-10-30T06:23:59;11.70;99.90
20200;DHT22;36284;37.236;-121.934;2022-10-30T06:26:26;11.70;99.90
20200;DHT22;36284;37.236;-121.934;2022-10-30T06:28:53;11.70;99.90
20200;DHT22;36284;37.236;-121.934;2022-10-30T06:31:20;11.70;99.90
20200;DHT22;36284;37.236;-121.934;2022-10-30T06:33:47;11.60;99.90
20200;DHT22;36284;37.236;-121.934;2022-10-30T06:36:14;11.60;99.90
20200;DHT22;36284;37.236;-121.934;2022-10-30T06:38:43;11.60;99.90
20200;DHT22;36284;37.236;-121.934;2022-10-30T06:41:10;11.70;99.90
20200;DHT22;36284;37.236;-121.934;2022-10-30T06:43:37;11.80;99.90
20200;DHT22;36284;37.236;-121.934;2022-10-30T06:46:04;11.90;99.90
20200;DHT22;36284;37.236;-121.934;2022-10-30T06:48:31;12.00;99.90
20200;DHT22;36284;37.236;-121.934;2022-10-30T06:50:59;12.10;99.90
20200;DHT22;36284;37.236;-121.934;2022-10-30T06:53:28;12.20;99.90
20200;DHT22;36284;37.236;-121.934;2022-10-30T06:56:00;12.40;99.90
20200;DHT22;36284;37.236;-121.934;2022-10-30T06:58:28;12.50;99.90
20200;DHT22;36284;37.236;-121.934;2022-10-30T07:00:57;12.70;99.90
20200;DHT22;36284;37.236;-121.934;2022-10-30T07:03:25;12.80;99.90
20200;DHT22;36284;37.236;-121.934;2022-10-30T07:05:51;12.90;99.90
20200;DHT22;36284;37.236;-121.934;2022-10-30T07:08:18;12.90;99.90
20200;DHT22;36284;37.236;-121.934;2022-10-30T07:10:45;13.00;99.90
20200;DHT22;36284;37.236;-121.934;2022-10-30T07:13:12;13.10;99.90
20200;DHT22;36284;37.236;-121.934;2022-10-30T07:15:39;13.10;99.90
20200;DHT22;36284;37.236;-121.934;2022-10-30T07:18:06;13.00;99.90
20200;DHT22;36284;37.236;-121.934;2022-10-30T07:20:33;13.00;99.90
20200;DHT22;36284;37.236;-121.934;2022-10-30T07:23:01;13.10;99.90
20200;DHT22;36284;37.236;-121.934;2022-10-30T07:25:28;13.20;99.90
20200;DHT22;36284;37.236;-121.934;2022-10-30T07:27:56;13.20;99.90
20200;DHT22;36284;37.236;-121.934;2022-10-30T07:30:25;13.30;99.90
20200;DHT22;36284;37.236;-121.934;2022-10-30T07:33:00;13.30;99.90
20200;DHT22;36284;37.236;-121.934;2022-10-30T07:35:28;13.40;99.90
20200;DHT22;36284;37.236;-121.934;2022-10-30T07:37:55;13.40;99.90
20200;DHT22;36284;37.236;-121.934;2022-10-30T07:40:22;13.50;99.90
20200;DHT22;36284;37.236;-121.934;2022-10-30T07:42:55;13.60;99.90
20200;DHT22;36284;37.236;-121.934;2022-10-30T07:45:22;13.80;99.90
20200;DHT22;36284;37.236;-121.934;2022-10-30T07:47:49;13.80;99.90
20200;DHT22;36284;37.236;-121.934;2022-10-30T07:50:16;13.90;99.90
20200;DHT22;36284;37.236;-121.934;2022-10-30T07:52:43;13.80;99.90
20200;DHT22;36284;37.236;-121.934;2022-10-30T07:55:10;13.90;99.90
20200;DHT22;36284;37.236;-121.934;2022-10-30T07:57:39;13.90;99.90
20200;DHT22;36284;37.236;-121.934;2022-10-30T08:00:08;13.90;99.90
20200;DHT22;36284;37.236;-121.934;2022-10-30T08:02:36;13.90;99.90
20200;DHT22;36284;37.236;-121.934;2022-10-30T08:05:03;13.80;99.90
20200;DHT22;36284;37.236;-121.934;2022-10-30T08:07:35;13.80;99.90
20200;DHT22;36284;37.236;-121.934;2022-10-30T08:10:04;13.80;99.90
20200;DHT22;36284;37.236;-121.934;2022-10-30T08:12:33;13.70;99.90
20200;DHT22;36284;37.236;-121.934;2022-10-30T08:15:00;13.70;99.90
20200;DHT22;36284;37.236;-121.934;2022-10-30T08:17:27;13.70;99.90
20200;DHT22;36284;37.236;-121.934;2022-10-30T08:19:54;13.70;99.90
20200;DHT22;36284;37.236;-121.934;2022-10-30T08:22:22;13.60;99.90
20200;DHT22;36284;37.236;-121.934;2022-10-30T08:24:49;13.60;99.90
20200;DHT22;36284;37.236;-121.934;2022-10-30T08:27:16;13.60;99.90
20200;DHT22;36284;37.236;-121.934;2022-10-30T08:29:43;13.70;99.90
20200;DHT22;36284;37.236;-121.934;2022-10-30T08:32:10;13.70;99.90
20200;DHT22;36284;37.236;-121.934;2022-10-30T08:34:37;13.70;99.90
20200;DHT22;36284;37.236;-121.934;2022-10-30T08:37:04;13.70;99.90
20200;DHT22;36284;37.236;-121.934;2022-10-30T08:39:33;13.70;99.90
20200;DHT22;36284;37.236;-121.934;2022-10-30T08:42:00;13.70;99.90
20200;DHT22;36284;37.236;-121.934;2022-10-30T08:44:27;13.70;99.90
20200;DHT22;36284;37.236;-121.934;2022-10-30T08:46:54;13.80;99.90
20200;DHT22;36284;37.236;-121.934;2022-10-30T08:49:20;13.80;99.90
20200;DHT22;36284;37.236;-121.934;2022-10-30T08:51:47;13.80;99.90
20200;DHT22;36284;37.236;-121.934;2022-10-30T08:54:14;13.70;99.90
20200;DHT22;36284;37.236;-121.934;2022-10-30T08:56:41;13.70;99.90
20200;DHT22;36284;37.236;-121.934;2022-10-30T08:59:08;13.70;99.90
20200;DHT22;36284;37.236;-121.934;2022-10-30T09:01:35;13.70;99.90
20200;DHT22;36284;37.236;-121.934;2022-10-30T09:04:02;13.70;99.90
20200;DHT22;36284;37.236;-121.934;2022-10-30T09:06:30;13.70;99.90
20200;DHT22;36284;37.236;-121.934;2022-10-30T09:08:57;13.60;99.90
20200;DHT22;36284;37.236;-121.934;2022-10-30T09:11:24;13.60;99.90
20200;DHT22;36284;37.236;-121.934;2022-10-30T09:13:51;13.70;99.90
20200;DHT22;36284;37.236;-121.934;2022-10-30T09:16:18;13.70;99.90
20200;DHT22;36284;37.236;-121.934;2022-10-30T09:18:45;13.70;99.90
20200;DHT22;36284;37.236;-121.934;2022-10-30T09:21:12;13.70;99.90
20200;DHT22;36284;37.236;-121.934;2022-10-30T09:23:39;13.60;99.90
20200;DHT22;36284;37.236;-121.934;2022-10-30T09:26:08;13.60;99.90
20200;DHT22;36284;37.236;-121.934;2022-10-30T09:28:35;13.70;99.90
20200;DHT22;36284;37.236;-121.934;2022-10-30T09:31:02;13.60;99.90
20200;DHT22;36284;37.236;-121.934;2022-10-30T09:33:29;13.60;99.90
20200;DHT22;36284;37.236;-121.934;2022-10-30T09:35:56;13.60;99.90
20200;DHT22;36284;37.236;-121.934;2022-10-30T09:38:23;13.60;99.90
20200;DHT22;36284;37.236;-121.934;2022-10-30T09:41:12;13.60;99.90
20200;DHT22;36284;37.236;-121.934;2022-10-30T09:46:40;13.50;99.90
20200;DHT22;36284;37.236;-121.934;2022-10-30T09:49:19;13.50;99.90
20200;DHT22;36284;37.236;-121.934;2022-10-30T09:53:14;13.50;99.90
20200;DHT22;36284;37.236;-121.934;2022-10-30T10:00:57;13.50;99.90
20200;DHT22;36284;37.236;-121.934;2022-10-30T10:04:00;13.40;99.90
20200;DHT22;36284;37.236;-121.934;2022-10-30T10:06:30;13.40;99.90
20200;DHT22;36284;37.236;-121.934;2022-10-30T10:09:07;13.30;99.90
20200;DHT22;36284;37.236;-121.934;2022-10-30T10:11:37;13.30;99.90
20200;DHT22;36284;37.236;-121.934;2022-10-30T10:14:17;13.30;99.90
20200;DHT22;36284;37.236;-121.934;2022-10-30T10:16:53;13.30;99.90
20200;DHT22;36284;37.236;-121.934;2022-10-30T10:19:38;13.30;99.90
20200;DHT22;36284;37.236;-121.934;2022-10-30T10:22:21;13.30;99.90
20200;DHT22;36284;37.236;-121.934;2022-10-30T10:24:50;13.30;99.90
20200;DHT22;36284;37.236;-121.934;2022-10-30T10:30:10;13.20;99.90
20200;DHT22;36284;37.236;-121.934;2022-10-30T10:38:28;13.10;99.90
20200;DHT22;36284;37.236;-121.934;2022-10-30T10:44:09;13.20;99.90
20200;DHT22;36284;37.236;-121.934;2022-10-30T10:47:17;13.20;99.90
20200;DHT22;36284;37.236;-121.934;2022-10-30T10:50:05;13.10;99.90
20200;DHT22;36284;37.236;-121.934;2022-10-30T10:52:40;13.10;99.90
20200;DHT22;36284;37.236;-121.934;2022-10-30T10:55:21;13.10;99.90
20200;DHT22;36284;37.236;-121.934;2022-10-30T10:57:51;13.10;99.90
20200;DHT22;36284;37.236;-121.934;2022-10-30T11:00:21;13.10;99.90
20200;DHT22;36284;37.236;-121.934;2022-10-30T11:05:54;13.10;99.90
20200;DHT22;36284;37.236;-121.934;2022-10-30T11:08:30;13.00;99.90
20200;DHT22;36284;37.236;-121.934;2022-10-30T11:10:59;13.00;99.90
20200;DHT22;36284;37.236;-121.934;2022-10-30T11:13:44;13.00;99.90
20200;DHT22;36284;37.236;-121.934;2022-10-30T11:19:23;13.00;99.90
20200;DHT22;36284;37.236;-121.934;2022-10-30T11:21:52;13.00;99.90
20200;DHT22;36284;37.236;-121.934;2022-10-30T11:24:29;12.90;99.90
20200;DHT22;36284;37.236;-121.934;2022-10-30T11:27:14;12.90;99.90
20200;DHT22;36284;37.236;-121.934;2022-10-30T11:29:57;12.90;99.90
20200;DHT22;36284;37.236;-121.934;2022-10-30T11:32:29;12.90;99.90
20200;DHT22;36284;37.236;-121.934;2022-10-30T11:37:34;13.00;99.90
20200;DHT22;36284;37.236;-121.934;2022-10-30T11:42:40;12.90;99.90
20200;DHT22;36284;37.236;-121.934;2022-10-30T11:45:26;13.00;99.90
20200;DHT22;36284;37.236;-121.934;2022-10-30T11:47:56;13.00;99.90
20200;DHT22;36284;37.236;-121.934;2022-10-30T11:50:28;12.90;99.90
20200;DHT22;36284;37.236;-121.934;2022-10-30T11:53:02;12.90;99.90
20200;DHT22;36284;37.236;-121.934;2022-10-30T11:55:43;13.00;99.90
20200;DHT22;36284;37.236;-121.934;2022-10-30T12:03:34;13.00;99.90
20200;DHT22;36284;37.236;-121.934;2022-10-30T12:09:00;12.90;99.90
20200;DHT22;36284;37.236;-121.934;2022-10-30T12:11:31;13.00;99.90
20200;DHT22;36284;37.236;-121.934;2022-10-30T12:13:58;12.90;99.90
20200;DHT22;36284;37.236;-121.934;2022-10-30T12:16:26;12.90;99.90
20200;DHT22;36284;37.236;-121.934;2022-10-30T12:21:28;12.90;99.90
20200;DHT22;36284;37.236;-121.934;2022-10-30T12:23:59;12.80;99.90
20200;DHT22;36284;37.236;-121.934;2022-10-30T12:26:33;12.90;99.90
20200;DHT22;36284;37.236;-121.934;2022-10-30T12:29:16;12.90;99.90
20200;DHT22;36284;37.236;-121.934;2022-10-30T12:31:56;12.80;99.90
20200;DHT22;36284;37.236;-121.934;2022-10-30T12:34:40;12.70;99.90
20200;DHT22;36284;37.236;-121.934;2022-10-30T12:37:31;12.80;99.90
20200;DHT22;36284;37.236;-121.934;2022-10-30T12:40:04;12.70;99.90
20200;DHT22;36284;37.236;-121.934;2022-10-30T12:42:39;12.60;99.90
20200;DHT22;36284;37.236;-121.934;2022-10-30T12:45:28;12.70;99.90
20200;DHT22;36284;37.236;-121.934;2022-10-30T12:48:09;12.70;99.90
20200;DHT22;36284;37.236;-121.934;2022-10-30T12:51:21;12.70;99.90
20200;DHT22;36284;37.236;-121.934;2022-10-30T12:56:50;12.80;99.90
20200;DHT22;36284;37.236;-121.934;2022-10-30T12:59:29;12.80;99.90
20200;DHT22;36284;37.236;-121.934;2022-10-30T13:05:03;12.80;99.90
20200;DHT22;36284;37.236;-121.934;2022-10-30T13:07:38;12.80;99.90
20200;DHT22;36284;37.236;-121.934;2022-10-30T13:13:01;12.80;99.90
20200;DHT22;36284;37.236;-121.934;2022-10-30T13:15:38;12.80;99.90
20200;DHT22;36284;37.236;-121.934;2022-10-30T13:18:24;12.70;99.90
20200;DHT22;36284;37.236;-121.934;2022-10-30T13:31:46;12.70;99.90
20200;DHT22;36284;37.236;-121.934;2022-10-30T13:37:29;12.70;99.90
20200;DHT22;36284;37.236;-121.934;2022-10-30T13:42:45;12.60;99.90
20200;DHT22;36284;37.236;-121.934;2022-10-30T13:48:15;12.60;99.90
20200;DHT22;36284;37.236;-121.934;2022-10-30T13:53:57;12.60;99.90
20200;DHT22;36284;37.236;-121.934;2022-10-30T13:56:27;12.40;99.90
20200;DHT22;36284;37.236;-121.934;2022-10-30T13:59:02;12.40;99.90
20200;DHT22;36284;37.236;-121.934;2022-10-30T14:04:35;12.50;99.90
20200;DHT22;36284;37.236;-121.934;2022-10-30T14:10:01;12.60;99.90
20200;DHT22;36284;37.236;-121.934;2022-10-30T14:12:50;12.50;99.90
20200;DHT22;36284;37.236;-121.934;2022-10-30T14:23:12;12.50;99.90
20200;DHT22;36284;37.236;-121.934;2022-10-30T14:25:40;12.50;99.90
20200;DHT22;36284;37.236;-121.934;2022-10-30T14:28:20;12.40;99.90
20200;DHT22;36284;37.236;-121.934;2022-10-30T14:30:47;12.50;99.90
20200;DHT22;36284;37.236;-121.934;2022-10-30T14:33:53;12.50;99.90
20200;DHT22;36284;37.236;-121.934;2022-10-30T14:36:21;12.50;99.90
20200;DHT22;36284;37.236;-121.934;2022-10-30T14:44:23;12.50;99.90
20200;DHT22;36284;37.236;-121.934;2022-10-30T14:47:21;12.60;99.90
20200;DHT22;36284;37.236;-121.934;2022-10-30T15:04:13;12.30;99.90
20200;DHT22;36284;37.236;-121.934;2022-10-30T15:06:30;12.30;99.90
20200;DHT22;36284;37.236;-121.934;2022-10-30T15:09:21;12.30;99.90
20200;DHT22;36284;37.236;-121.934;2022-10-30T15:19:46;12.00;99.90
20200;DHT22;36284;37.236;-121.934;2022-10-30T15:22:18;12.10;99.90
20200;DHT22;36284;37.236;-121.934;2022-10-30T15:24:47;12.10;99.90
20200;DHT22;36284;37.236;-121.934;2022-10-30T15:27:17;12.20;99.90
20200;DHT22;36284;37.236;-121.934;2022-10-30T15:30:05;12.30;99.90
20200;DHT22;36284;37.236;-121.934;2022-10-30T15:32:32;12.30;99.90
20200;DHT22;36284;37.236;-121.934;2022-10-30T15:35:01;12.30;99.90
20200;DHT22;36284;37.236;-121.934;2022-10-30T15:37:28;12.30;99.90
20200;DHT22;36284;37.236;-121.934;2022-10-30T15:40:17;12.40;99.90
20200;DHT22;36284;37.236;-121.934;2022-10-30T15:42:46;12.30;99.90
20200;DHT22;36284;37.236;-121.934;2022-10-30T15:48:29;12.30;99.90
20200;DHT22;36284;37.236;-121.934;2022-10-30T15:51:06;12.40;99.90
20200;DHT22;36284;37.236;-121.934;2022-10-30T15:53:57;12.30;99.90
20200;DHT22;36284;37.236;-121.934;2022-10-30T15:56:45;12.30;99.90
20200;DHT22;36284;37.236;-121.934;2022-10-30T15:59:21;12.50;99.90
20200;DHT22;36284;37.236;-121.934;2022-10-30T16:01:50;12.50;99.90
20200;DHT22;36284;37.236;-121.934;2022-10-30T16:04:23;12.50;99.90
20200;DHT22;36284;37.236;-121.934;2022-10-30T16:07:01;12.50;99.90
20200;DHT22;36284;37.236;-121.934;2022-10-30T16:09:30;12.60;99.90
20200;DHT22;36284;37.236;-121.934;2022-10-30T16:11:58;12.80;99.90
20200;DHT22;36284;37.236;-121.934;2022-10-30T16:14:29;12.80;99.90
20200;DHT22;36284;37.236;-121.934;2022-10-30T16:17:01;13.00;99.90
20200;DHT22;36284;37.236;-121.934;2022-10-30T16:19:54;13.00;99.90
20200;DHT22;36284;37.236;-121.934;2022-10-30T16:22:27;13.10;99.90
20200;DHT22;36284;37.236;-121.934;2022-10-30T16:24:56;13.00;99.90
20200;DHT22;36284;37.236;-121.934;2022-10-30T16:27:24;12.90;99.90
20200;DHT22;36284;37.236;-121.934;2022-10-30T16:29:54;13.00;99.90
20200;DHT22;36284;37.236;-121.934;2022-10-30T16:32:25;12.90;99.90
20200;DHT22;36284;37.236;-121.934;2022-10-30T16:34:57;13.00;99.90
20200;DHT22;36284;37.236;-121.934;2022-10-30T16:37:34;12.80;99.90
20200;DHT22;36284;37.236;-121.934;2022-10-30T16:40:06;12.90;99.90
20200;DHT22;36284;37.236;-121.934;2022-10-30T16:42:36;12.80;99.90
20200;DHT22;36284;37.236;-121.934;2022-10-30T16:47:55;13.30;99.90
20200;DHT22;36284;37.236;-121.934;2022-10-30T16:50:36;13.30;99.90
20200;DHT22;36284;37.236;-121.934;2022-10-30T16:53:05;13.30;99.90
20200;DHT22;36284;37.236;-121.934;2022-10-30T16:55:32;13.40;99.90
20200;DHT22;36284;37.236;-121.934;2022-10-30T16:58:01;13.50;99.90
20200;DHT22;36284;37.236;-121.934;2022-10-30T17:00:28;13.40;99.90
20200;DHT22;36284;37.236;-121.934;2022-10-30T17:02:57;13.50;99.90
20200;DHT22;36284;37.236;-121.934;2022-10-30T17:05:31;13.50;99.90
20200;DHT22;36284;37.236;-121.934;2022-10-30T17:10:36;13.60;99.90
20200;DHT22;36284;37.236;-121.934;2022-10-30T17:13:35;13.50;99.90
20200;DHT22;36284;37.236;-121.934;2022-10-30T17:16:25;14.00;99.90
20200;DHT22;36284;37.236;-121.934;2022-10-30T17:19:00;13.90;99.90
20200;DHT22;36284;37.236;-121.934;2022-10-30T17:21:39;13.80;99.90
20200;DHT22;36284;37.236;-121.934;2022-10-30T17:24:19;14.00;99.90
20200;DHT22;36284;37.236;-121.934;2022-10-30T17:27:01;13.90;99.90
20200;DHT22;36284;37.236;-121.934;2022-10-30T17:34:46;14.70;99.90
20200;DHT22;36284;37.236;-121.934;2022-10-30T17:37:13;14.70;99.90
20200;DHT22;36284;37.236;-121.934;2022-10-30T17:39:40;14.90;99.90
20200;DHT22;36284;37.236;-121.934;2022-10-30T17:42:09;15.00;99.90
20200;DHT22;36284;37.236;-121.934;2022-10-30T17:44:35;15.30;99.90
20200;DHT22;36284;37.236;-121.934;2022-10-30T17:47:17;15.40;99.90
20200;DHT22;36284;37.236;-121.934;2022-10-30T17:49:44;15.60;99.90